createdAt,value
2022-12-17T00:02:28.563Z,25.62
2022-12-17T00:22:34.244Z,23.80
2022-12-17T00:42:40.081Z,25.21
2022-12-17T01:02:46.008Z,24.87
2022-12-17T01:22:51.652Z,25.79
2022-12-17T01:42:57.443Z,25.45
2022-12-17T02:03:03.450Z,25.79
2022-12-17T02:23:09.111Z,26.21
2022-12-17T02:43:14.921Z,24.41
2022-12-17T03:03:20.801Z,23.35
2022-12-17T03:23:26.498Z,25.72
2022-12-17T03:43:32.613Z,25.85
2022-12-17T04:03:38.281Z,22.24
2022-12-17T04:23:43.140Z,23.21
2022-12-17T04:43:48.960Z,23.34
2022-12-17T05:03:54.862Z,23.18
2022-12-17T05:24:00.597Z,21.88
2022-12-17T05:44:06.498Z,22.26
2022-12-17T06:04:12.433Z,23.22
2022-12-17T06:24:18.100Z,19.60
2022-12-17T06:44:23.983Z,22.20
2022-12-17T07:04:30.015Z,23.73
2022-12-17T07:24:35.830Z,24.10
2022-12-17T07:44:41.610Z,26.23
2022-12-17T08:04:47.370Z,24.50
2022-12-17T08:24:53.120Z,26.32
2022-12-17T08:44:58.871Z,28.38
2022-12-17T09:05:04.701Z,26.19
2022-12-17T09:25:10.404Z,25.42
2022-12-17T09:45:16.210Z,26.65
2022-12-17T10:05:21.988Z,22.63
2022-12-17T10:25:27.759Z,24.30
2022-12-17T10:45:33.548Z,24.35
2022-12-17T11:05:39.386Z,22.57
2022-12-17T11:25:45.135Z,23.32
2022-12-17T11:45:50.967Z,21.35
2022-12-17T12:05:57.095Z,19.16
2022-12-17T12:26:02.079Z,19.58
2022-12-17T12:46:07.951Z,18.55
2022-12-17T13:06:13.651Z,16.91
2022-12-17T13:26:19.499Z,17.28
2022-12-17T13:46:25.352Z,17.26
2022-12-17T14:06:31.193Z,16.52
2022-12-17T14:26:36.965Z,15.44
2022-12-17T14:46:42.934Z,16.30
2022-12-17T15:06:49.770Z,13.86
2022-12-17T15:26:55.527Z,14.01
2022-12-17T15:47:01.275Z,11.62
2022-12-17T16:07:07.007Z,12.18
2022-12-17T16:27:12.809Z,10.77
2022-12-17T16:47:18.725Z,15.71
2022-12-17T17:07:24.516Z,14.23
2022-12-17T17:27:30.351Z,15.17
2022-12-17T17:47:36.272Z,14.83
2022-12-17T18:07:42.137Z,14.74
2022-12-17T18:27:47.932Z,17.90
2022-12-17T18:47:53.718Z,15.22
2022-12-17T19:08:00.582Z,17.23
2022-12-17T19:28:06.371Z,22.02
2022-12-17T19:48:12.159Z,97.97
2022-12-17T20:08:22.280Z,142.43
2022-12-17T20:28:22.823Z,129.29
2022-12-17T20:48:28.720Z,69.40
2022-12-17T21:08:34.514Z,64.75
2022-12-17T21:28:40.619Z,62.71
2022-12-17T21:48:46.218Z,61.67
2022-12-17T22:08:53.833Z,57.53
2022-12-17T22:28:56.504Z,50.78
2022-12-17T22:49:02.320Z,52.38
2022-12-17T23:09:08.149Z,51.64
2022-12-17T23:29:19.155Z,47.89
2022-12-17T23:49:19.433Z,51.11
